Hauptseite
METAR-TAF:

METAR-TAF

Flughäfen :

Flughafen Cherbourg-Maupertus

Cherbourg, Frankreich

Breite: 49-39N, Länge: 001-28W, Höhe: 138 m

Beobachtung

Neuester Wetterbericht von vor 26 Minuten, um 03:00 UTC
Wind 6 kt aus Ost/Nordost
Temperatur 5°C
Luftfeuchtigkeit 75%
Luftdruck 1031 hPa
Sichtweite 10 km oder mehr
Leicht bewölkt in der Höhe von 2400 ft
Durchbrochene Bewölkung in der Höhe von 4100 ft
Geschlossene Wolkendecke in der Höhe von 4900 ft

METAR: LFRC 150300Z AUTO 06006KT 9999 FEW024 BKN041 OVC049 05/01 Q1031

Zeit: 05:26 (03:26 UTC)

Prognose

Neuester Wetterbericht von vor 13 Stunden und 26 Minuten, um 14:00 UTC
Gültige Prognose vom 14 um 15 UTC bis 14 um 24 UTC
Wind 8 kt aus Ost/Nordost
Sichtweite 10 km oder mehr
Aufgelockert bewölkt in der Höhe von 3000 ft

TAF: LFRC 141400Z 1415/1424 06008KT 9999 SCT030

Wetterbeobachtungen und Prognosen von mehr als 4000 Flughäfen (METAR und TAF Bericht).

Die verfügbaren Stationen werden durch gelbe und rote Markierungen auf der Karte dargestellt.

Führen Sie die Maus auf sie, um den Namen der Station zu sehen.

Darauf klicken, um die Beobachtung von Wetterbeobachtungen und Prognosen zu sehen.

Um die Karte zu ändern : klicken Sie auf den grünen Tasten mit einem schwarzen Kreuz Zum Vergrößern, auf den grünen Button mit einem Gedankenstrich zu verkleinern, oder auf die grünen Pfeile für benachbarte Karten.


METAR-TAF: